CST,Max TemperatureF,Mean TemperatureF,Min TemperatureF,Max Dew PointF,MeanDew PointF,Min DewpointF,Max Humidity, Mean Humidity, Min Humidity, Max Sea Level PressureIn, Mean Sea Level PressureIn, Min Sea Level PressureIn, Max VisibilityMiles, Mean VisibilityMiles, Min VisibilityMiles, Max Wind SpeedMPH, Mean Wind SpeedMPH, Max Gust SpeedMPH,PrecipitationIn, CloudCover, Events, WindDirDegrees
2011-11-1,75,57,38,46,42,37,100,65,29,30.24,30.18,30.14,10,7,2,13,4,16,0.00,0,,138
2011-11-2,80,63,46,59,52,44,100,74,48,30.18,30.12,30.04,10,7,0,18,8,24,0.00,2,Fog,144
2011-11-3,67,55,43,59,43,31,83,60,36,30.24,30.14,30.04,10,10,2,24,13,31,0.14,4,Rain,304
2011-11-4,67,52,36,44,37,29,80,61,42,30.24,30.17,30.10,10,10,10,12,6,15,0.00,0,,3
2011-11-5,70,53,35,51,42,36,96,70,44,30.18,30.12,30.04,10,7,0,16,6,23,0.00,1,,130
2011-11-6,80,68,55,60,57,53,93,71,48,30.17,30.12,30.08,10,10,8,20,11,24,0.00,6,,133
2011-11-7,80,71,62,62,60,57,93,74,54,30.19,30.12,30.04,10,10,8,21,11,24,0.00,5,,132
2011-11-8,80,71,61,70,64,60,93,78,62,30.06,29.99,29.91,10,9,4,23,12,29,0.42,6,Rain-Thunderstorm,152
2011-11-9,64,58,51,59,47,39,97,75,52,30.30,30.16,30.02,10,10,10,18,9,24,0.00,2,,327
2011-11-10,63,49,35,39,31,23,82,52,21,30.39,30.32,30.27,10,10,10,21,7,28,0.00,0,,343
2011-11-11,68,49,30,39,33,29,96,60,24,30.31,30.24,30.17,10,10,10,16,5,20,0.00,0,,181
2011-11-12,74,56,38,54,47,35,85,67,49,30.19,30.11,30.02,10,10,9,23,9,30,0.00,1,,149
2011-11-13,80,70,59,62,60,55,93,74,54,30.03,29.98,29.91,10,10,9,23,10,28,0.00,5,,164
2011-11-14,83,70,57,66,62,57,100,74,47,29.99,29.93,29.85,10,7,0,20,7,26,0.00,3,Fog,158
2011-11-15,84,75,65,68,65,60,100,74,47,29.89,29.80,29.73,10,8,2,21,7,26,0.02,5,Rain-Thunderstorm,155
2011-11-16,79,67,55,68,63,47,100,79,58,30.18,29.84,29.71,10,7,2,20,8,24,T,6,Rain,259
2011-11-17,61,51,40,41,30,24,72,50,28,30.40,30.32,30.19,10,10,10,17,8,24,0.00,1,,18
2011-11-18,63,48,32,42,31,24,82,56,29,30.34,30.23,30.13,10,10,10,16,6,21,0.00,0,,125
2011-11-19,78,61,43,63,56,42,100,78,56,30.12,30.08,30.01,10,8,2,16,9,21,0.00,3,,149
2011-11-20,83,75,66,70,67,63,100,78,55,30.19,30.13,30.06,10,6,0,16,9,21,0.01,6,Fog-Rain,145
2011-11-21,81,73,65,67,65,62,100,79,58,30.20,30.09,29.98,10,9,4,15,7,17,0.00,5,,151
2011-11-22,73,64,54,68,62,51,93,89,84,30.16,29.99,29.91,10,8,0,17,8,22,1.39,7,Fog-Rain-Thunderstorm,199
2011-11-23,69,58,47,52,49,46,89,68,47,30.30,30.23,30.15,10,10,8,14,6,20,0.00,4,,2
2011-11-24,67,55,42,48,45,41,100,74,48,30.36,30.30,30.23,10,5,0,9,2,16,0.00,2,Fog,56
2011-11-25,73,56,39,59,47,39,100,77,53,30.22,30.15,30.00,10,6,1,15,5,20,0.01,1,,140
2011-11-26,77,64,51,68,59,48,100,85,69,30.02,29.94,29.84,10,6,0,22,8,30,1.21,7,Fog-Rain-Thunderstorm,245
2011-11-27,51,47,43,48,40,34,93,79,65,30.16,30.09,30.00,10,10,7,20,11,25,0.03,8,Rain,314
2011-11-28,48,39,30,34,31,29,89,68,46,30.12,30.06,30.00,10,10,6,16,6,21,0.00,4,,305
2011-11-29,61,46,31,37,30,26,92,60,27,30.17,30.09,30.01,10,10,9,16,6,20,0.00,0,,299
2011-11-30,60,47,33,38,35,32,92,64,36,30.27,30.20,30.17,10,10,8,7,2,9,0.00,0,,298